createdAt,value
2022-09-07T00:01:09.472Z,15.50
2022-09-07T00:03:37.006Z,15.50
2022-09-07T00:06:10.725Z,15.70
2022-09-07T00:08:39.693Z,15.70
2022-09-07T00:11:13.391Z,15.20
2022-09-07T00:13:43.148Z,15.40
2022-09-07T00:16:30.332Z,15.40
2022-09-07T00:19:01.192Z,16.20
2022-09-07T00:21:28.854Z,15.30
2022-09-07T00:26:28.019Z,15.50
2022-09-07T00:29:00.282Z,15.90
2022-09-07T00:31:29.648Z,15.30
2022-09-07T00:34:00.903Z,15.30
2022-09-07T00:41:24.346Z,15.60
2022-09-07T00:43:55.896Z,15.10
2022-09-07T00:46:34.641Z,15.50
2022-09-07T00:49:23.100Z,15.60
2022-09-07T00:51:59.870Z,13.80
2022-09-07T00:54:36.126Z,15.60
2022-09-07T00:59:43.934Z,16.50
2022-09-07T01:02:14.266Z,15.20
2022-09-07T01:04:42.055Z,16.20
2022-09-07T01:12:05.387Z,14.90
2022-09-07T01:14:41.934Z,16.30
2022-09-07T01:18:00.741Z,15.10
2022-09-07T01:21:14.457Z,16.50
2022-09-07T01:24:03.157Z,15.30
2022-09-07T01:27:08.279Z,16.00
2022-09-07T01:29:58.962Z,15.20
2022-09-07T01:32:41.288Z,16.50
2022-09-07T01:35:22.245Z,15.80
2022-09-07T01:38:23.490Z,15.10
2022-09-07T01:41:16.148Z,14.70
2022-09-07T01:43:54.606Z,14.90
2022-09-07T01:46:30.108Z,15.90
2022-09-07T01:49:17.031Z,15.30
2022-09-07T01:51:51.805Z,14.50
2022-09-07T01:54:37.643Z,15.40
2022-09-07T01:57:16.045Z,15.00
2022-09-07T02:00:10.454Z,15.40
2022-09-07T02:02:55.885Z,15.20
2022-09-07T02:05:33.956Z,15.40
2022-09-07T02:08:10.593Z,15.30
2022-09-07T02:10:51.579Z,15.40
2022-09-07T02:13:31.371Z,16.20
2022-09-07T02:16:19.508Z,15.40
2022-09-07T02:18:53.591Z,15.00
2022-09-07T02:21:35.831Z,15.30
2022-09-07T02:24:17.025Z,15.40
2022-09-07T02:26:49.429Z,15.30
2022-09-07T02:29:16.737Z,15.50
2022-09-07T02:34:11.738Z,15.90
2022-09-07T02:36:46.735Z,15.20
2022-09-07T02:39:14.108Z,15.80
2022-09-07T02:41:45.252Z,15.20
2022-09-07T02:44:22.156Z,15.70
2022-09-07T02:47:01.146Z,15.20
2022-09-07T02:49:52.775Z,14.80
2022-09-07T02:53:07.892Z,15.10
2022-09-07T02:55:40.991Z,14.40
2022-09-07T02:58:33.536Z,15.10
2022-09-07T03:01:18.851Z,16.00
2022-09-07T03:04:04.111Z,15.00
2022-09-07T03:07:03.394Z,15.90
2022-09-07T03:09:38.584Z,15.00
2022-09-07T03:12:07.883Z,13.90
2022-09-07T03:17:06.476Z,15.90
2022-09-07T03:22:01.112Z,15.00
2022-09-07T03:26:57.468Z,15.10
2022-09-07T03:36:47.819Z,15.50
2022-09-07T03:41:43.132Z,16.00
2022-09-07T03:49:06.924Z,15.80
2022-09-07T03:54:01.552Z,13.90
2022-09-07T03:58:57.395Z,15.70
2022-09-07T04:01:26.856Z,14.60
2022-09-07T04:04:02.210Z,14.10
2022-09-07T04:06:31.676Z,14.30
2022-09-07T04:09:04.602Z,14.40
2022-09-07T04:11:32.268Z,15.10
2022-09-07T04:14:01.841Z,14.50
2022-09-07T04:16:30.619Z,13.90
2022-09-07T04:21:29.850Z,14.30
2022-09-07T04:24:00.950Z,14.30
2022-09-07T04:26:35.524Z,14.40
2022-09-07T04:29:04.356Z,15.90
2022-09-07T04:34:00.659Z,15.10
2022-09-07T04:39:03.108Z,15.40
2022-09-07T04:41:32.920Z,14.70
2022-09-07T04:44:03.945Z,14.60
2022-09-07T04:46:35.771Z,14.80
2022-09-07T04:49:08.457Z,14.60
2022-09-07T04:51:37.855Z,14.90
2022-09-07T04:54:05.141Z,14.40
2022-09-07T04:59:02.398Z,14.00
2022-09-07T05:01:30.130Z,14.30
2022-09-07T05:04:00.239Z,14.60
2022-09-07T05:06:27.667Z,16.10
2022-09-07T05:08:56.615Z,16.70
2022-09-07T05:11:29.212Z,15.60
2022-09-07T05:14:03.186Z,16.00
2022-09-07T05:16:32.218Z,16.90
2022-09-07T05:19:03.832Z,17.00
2022-09-07T05:21:35.234Z,17.30
2022-09-07T05:24:05.324Z,17.80
2022-09-07T05:26:36.182Z,18.00
2022-09-07T05:31:53.255Z,18.30
2022-09-07T05:36:55.218Z,19.10
2022-09-07T05:39:27.001Z,20.30
2022-09-07T05:47:10.690Z,21.90
2022-09-07T05:49:37.799Z,22.50
2022-09-07T05:54:32.609Z,22.60
2022-09-07T06:04:22.848Z,24.70
2022-09-07T06:14:53.739Z,23.50
2022-09-07T06:17:20.888Z,24.80
2022-09-07T06:24:43.054Z,25.40
2022-09-07T06:27:10.435Z,24.20
2022-09-07T06:39:49.003Z,27.70
2022-09-07T06:44:43.993Z,26.30
2022-09-07T06:47:11.084Z,26.40
2022-09-07T06:52:07.050Z,27.30
2022-09-07T07:02:16.646Z,26.40
2022-09-07T07:04:44.032Z,28.80
2022-09-07T07:07:15.865Z,30.20
2022-09-07T07:09:43.172Z,28.30
2022-09-07T07:12:11.125Z,28.70
2022-09-07T07:14:43.934Z,29.10
2022-09-07T07:19:39.897Z,29.40
2022-09-07T07:24:54.386Z,29.80
2022-09-07T07:32:17.209Z,29.70
2022-09-07T07:47:42.408Z,32.40
2022-09-07T07:58:12.977Z,32.20
2022-09-07T08:00:53.812Z,32.60
2022-09-07T08:03:23.815Z,31.20
2022-09-07T08:05:51.115Z,31.90
2022-09-07T08:08:18.772Z,32.40
2022-09-07T08:13:16.514Z,29.90
2022-09-07T08:18:17.326Z,30.30
2022-09-07T08:20:44.684Z,31.40
2022-09-07T08:23:12.218Z,31.50
2022-09-07T08:25:39.425Z,31.40
2022-09-07T08:30:33.999Z,33.90
2022-09-07T08:33:01.095Z,34.60
2022-09-07T08:37:55.814Z,34.10
2022-09-07T08:40:22.974Z,33.90
2022-09-07T08:43:03.656Z,34.60
2022-09-07T08:45:52.741Z,37.00
2022-09-07T08:48:32.315Z,36.80
2022-09-07T08:51:27.564Z,35.00
2022-09-07T08:56:34.286Z,37.50
2022-09-07T08:59:16.684Z,36.00
2022-09-07T09:02:26.839Z,37.50
2022-09-07T09:07:16.931Z,36.00
2022-09-07T09:10:10.354Z,34.10
2022-09-07T09:13:05.395Z,35.90
2022-09-07T09:16:00.765Z,34.80
2022-09-07T09:18:51.683Z,35.90
2022-09-07T09:21:20.171Z,36.20
2022-09-07T09:23:52.759Z,34.70
2022-09-07T09:26:33.476Z,37.60
2022-09-07T09:29:19.914Z,38.00
2022-09-07T09:31:47.112Z,37.60
2022-09-07T09:34:18.280Z,36.10
2022-09-07T09:39:35.015Z,34.50
2022-09-07T09:42:23.148Z,34.10
2022-09-07T09:44:51.362Z,35.50
2022-09-07T09:47:36.609Z,34.30
2022-09-07T09:53:37.595Z,35.80
2022-09-07T09:56:05.832Z,33.90
2022-09-07T10:01:35.933Z,35.40
2022-09-07T10:04:34.117Z,34.60
2022-09-07T10:07:20.995Z,34.00
2022-09-07T10:09:54.059Z,34.00
2022-09-07T10:12:37.102Z,34.90
2022-09-07T10:15:08.226Z,34.40
2022-09-07T10:17:42.722Z,35.80
2022-09-07T10:20:16.006Z,35.80
2022-09-07T10:23:02.998Z,34.50
2022-09-07T10:25:45.593Z,34.90
2022-09-07T10:28:24.839Z,33.20
2022-09-07T10:31:31.487Z,36.00
2022-09-07T10:34:32.267Z,36.40
2022-09-07T10:37:11.119Z,35.00
2022-09-07T10:40:00.457Z,37.60
2022-09-07T10:43:20.811Z,36.60
2022-09-07T10:45:59.920Z,34.40
2022-09-07T10:48:49.847Z,37.70
2022-09-07T10:51:55.399Z,36.00
2022-09-07T10:55:03.076Z,35.10
2022-09-07T10:59:01.386Z,34.20
2022-09-07T11:01:25.444Z,35.00
2022-09-07T11:04:24.689Z,34.50
2022-09-07T11:07:15.703Z,34.80
2022-09-07T11:09:59.936Z,36.90
2022-09-07T11:12:37.385Z,34.40
2022-09-07T11:15:13.821Z,33.50
2022-09-07T11:18:15.086Z,36.40
2022-09-07T11:20:55.562Z,35.60
2022-09-07T11:24:01.517Z,36.10
2022-09-07T11:26:48.820Z,34.30
2022-09-07T11:29:35.764Z,34.40
2022-09-07T11:32:14.023Z,34.50
2022-09-07T11:34:58.906Z,34.70
2022-09-07T11:37:49.111Z,34.90
2022-09-07T11:40:43.836Z,35.80
2022-09-07T11:43:25.142Z,35.00
2022-09-07T11:46:07.760Z,34.90
2022-09-07T11:48:55.151Z,35.90
2022-09-07T11:51:26.978Z,34.80
2022-09-07T11:54:02.294Z,34.10
2022-09-07T11:56:45.655Z,33.30
2022-09-07T11:59:36.994Z,34.50
2022-09-07T12:02:58.154Z,33.10
2022-09-07T12:06:14.072Z,34.30
2022-09-07T12:09:20.843Z,34.30
2022-09-07T12:12:18.681Z,34.50
2022-09-07T12:15:03.947Z,34.40
2022-09-07T12:17:51.361Z,34.80
2022-09-07T12:20:22.809Z,34.00
2022-09-07T12:23:05.807Z,34.00
2022-09-07T12:25:35.000Z,34.00
2022-09-07T12:30:30.753Z,33.80
2022-09-07T12:33:04.638Z,33.20
2022-09-07T12:35:40.342Z,34.00
2022-09-07T12:38:13.654Z,33.00
2022-09-07T12:40:58.134Z,33.30
2022-09-07T12:43:28.229Z,33.90
2022-09-07T12:45:56.777Z,33.30
2022-09-07T12:48:38.714Z,34.00
2022-09-07T12:54:41.101Z,32.80
2022-09-07T12:57:36.136Z,31.60
2022-09-07T13:00:34.351Z,34.10
2022-09-07T13:07:03.060Z,31.70
2022-09-07T13:09:33.895Z,32.10
2022-09-07T13:15:41.907Z,31.90
2022-09-07T13:18:35.098Z,31.60
2022-09-07T13:21:08.148Z,31.80
2022-09-07T13:23:35.885Z,31.60
2022-09-07T13:26:06.927Z,31.20
2022-09-07T13:28:58.343Z,31.00
2022-09-07T13:31:52.810Z,30.90
2022-09-07T13:34:35.097Z,30.10
2022-09-07T13:37:19.550Z,30.50
2022-09-07T13:39:52.613Z,31.00
2022-09-07T13:42:30.250Z,30.10
2022-09-07T13:45:06.373Z,29.20
2022-09-07T13:47:58.253Z,29.80
2022-09-07T13:50:59.470Z,31.00
2022-09-07T13:53:38.423Z,30.50
2022-09-07T13:56:14.428Z,29.80
2022-09-07T13:58:45.880Z,29.10
2022-09-07T14:04:18.602Z,28.80
2022-09-07T14:09:21.195Z,30.50
2022-09-07T14:11:54.481Z,29.10
2022-09-07T14:14:33.138Z,30.00
2022-09-07T14:19:41.500Z,29.40
2022-09-07T14:22:34.133Z,30.40
2022-09-07T14:25:05.993Z,29.00
2022-09-07T14:27:43.446Z,28.40
2022-09-07T14:30:22.631Z,28.70
2022-09-07T14:32:53.714Z,29.30
2022-09-07T14:35:25.056Z,29.40
2022-09-07T14:37:53.442Z,28.70
2022-09-07T14:40:26.078Z,28.40
2022-09-07T14:42:55.919Z,28.40
2022-09-07T14:45:22.877Z,28.70
2022-09-07T14:47:57.283Z,27.80
2022-09-07T14:50:39.195Z,28.30
2022-09-07T14:53:34.712Z,28.00
2022-09-07T14:56:10.712Z,28.10
2022-09-07T15:04:02.139Z,28.00
2022-09-07T15:09:37.241Z,28.00
2022-09-07T15:12:19.186Z,27.20
2022-09-07T15:17:47.822Z,27.80
2022-09-07T15:20:43.829Z,28.30
2022-09-07T15:23:19.537Z,26.90
2022-09-07T15:25:53.711Z,27.80
2022-09-07T15:34:19.021Z,28.50
2022-09-07T15:36:53.357Z,27.20
2022-09-07T15:39:25.651Z,27.20
2022-09-07T15:41:53.038Z,28.60
2022-09-07T15:44:25.290Z,28.70
2022-09-07T16:05:17.285Z,27.00
2022-09-07T16:15:30.252Z,25.90
2022-09-07T16:17:58.736Z,25.90
2022-09-07T16:20:26.864Z,26.10
2022-09-07T16:28:11.346Z,26.50
2022-09-07T16:30:41.631Z,25.80
2022-09-07T16:43:19.538Z,26.80
2022-09-07T16:48:32.687Z,25.90
2022-09-07T16:53:32.689Z,25.70
2022-09-07T16:56:08.058Z,26.00
2022-09-07T16:58:38.934Z,25.70
2022-09-07T17:01:09.571Z,25.60
2022-09-07T17:06:08.102Z,25.50
2022-09-07T17:08:38.966Z,25.50
2022-09-07T17:11:17.838Z,25.10
2022-09-07T17:13:45.713Z,25.90
2022-09-07T17:16:22.667Z,25.60
2022-09-07T17:21:40.556Z,25.00
2022-09-07T17:24:10.439Z,23.80
2022-09-07T17:26:38.768Z,25.90
2022-09-07T17:29:07.309Z,25.80
2022-09-07T17:41:52.876Z,24.40
2022-09-07T17:54:17.555Z,24.30
2022-09-07T18:02:01.423Z,23.30
2022-09-07T18:09:24.162Z,23.40
2022-09-07T18:14:19.554Z,23.40
2022-09-07T18:16:49.758Z,23.20
2022-09-07T18:24:23.377Z,22.30
2022-09-07T18:26:53.417Z,24.70
2022-09-07T18:29:29.875Z,22.50
2022-09-07T18:31:59.342Z,23.60
2022-09-07T18:34:28.689Z,23.10
2022-09-07T18:36:57.340Z,22.60
2022-09-07T18:39:25.934Z,22.60
2022-09-07T18:41:55.206Z,22.70
2022-09-07T18:49:51.834Z,22.60
2022-09-07T18:55:13.100Z,21.20
2022-09-07T19:00:11.276Z,21.40
2022-09-07T19:02:38.500Z,21.90
2022-09-07T19:07:54.321Z,21.30
2022-09-07T19:10:21.696Z,23.00
2022-09-07T19:12:48.914Z,21.80
2022-09-07T19:17:43.866Z,21.10
2022-09-07T19:20:11.176Z,22.30
2022-09-07T19:25:06.864Z,20.60
2022-09-07T19:27:35.336Z,21.80
2022-09-07T19:30:02.672Z,22.70
2022-09-07T19:32:30.116Z,22.00
2022-09-07T19:37:26.100Z,20.70
2022-09-07T19:42:25.741Z,20.40
2022-09-07T19:44:55.180Z,21.30
2022-09-07T19:47:25.301Z,20.90
2022-09-07T19:52:20.352Z,21.80
2022-09-07T19:57:15.107Z,20.00
2022-09-07T19:59:42.220Z,21.50
2022-09-07T20:02:12.806Z,20.60
2022-09-07T20:04:39.924Z,20.10
2022-09-07T20:07:07.257Z,21.20
2022-09-07T20:09:34.686Z,21.10
2022-09-07T20:12:06.194Z,21.10
2022-09-07T20:17:01.353Z,19.80
2022-09-07T20:21:56.135Z,21.00
2022-09-07T20:32:01.157Z,20.40
2022-09-07T20:34:29.292Z,20.80
2022-09-07T20:41:52.340Z,20.30
2022-09-07T20:49:16.310Z,19.10
2022-09-07T20:51:43.562Z,21.00
2022-09-07T20:54:10.731Z,21.30
2022-09-07T20:56:38.004Z,19.50
2022-09-07T20:59:05.376Z,18.50
2022-09-07T21:01:35.187Z,19.70
2022-09-07T21:04:03.078Z,19.00
2022-09-07T21:06:32.964Z,19.50
2022-09-07T21:09:00.379Z,20.20
2022-09-07T21:11:34.453Z,18.60
2022-09-07T21:14:11.537Z,19.50
2022-09-07T21:16:40.268Z,19.50
2022-09-07T21:19:11.082Z,18.30
2022-09-07T21:21:41.843Z,19.60
2022-09-07T21:24:21.918Z,19.60
2022-09-07T21:26:50.543Z,18.70
2022-09-07T21:29:26.403Z,19.70
2022-09-07T21:31:55.013Z,20.20
2022-09-07T21:34:23.213Z,20.80
2022-09-07T21:36:51.380Z,18.60
2022-09-07T21:39:19.335Z,20.40
2022-09-07T21:41:46.497Z,20.30
2022-09-07T21:44:17.105Z,19.70
2022-09-07T21:46:45.152Z,19.50
2022-09-07T21:49:12.874Z,19.00
2022-09-07T21:51:40.194Z,18.10
2022-09-07T21:56:35.151Z,19.40
2022-09-07T21:59:02.808Z,19.50
2022-09-07T22:01:31.851Z,18.70
2022-09-07T22:04:03.273Z,19.10
2022-09-07T22:06:32.520Z,20.50
2022-09-07T22:09:01.196Z,19.30
2022-09-07T22:11:30.408Z,19.30
2022-09-07T22:14:04.114Z,18.90
2022-09-07T22:16:34.048Z,18.30
2022-09-07T22:21:30.638Z,18.90
2022-09-07T22:24:03.603Z,18.70
2022-09-07T22:26:37.692Z,19.30
2022-09-07T22:29:11.282Z,19.40
2022-09-07T22:31:39.443Z,18.80
2022-09-07T22:34:09.411Z,18.60
2022-09-07T22:36:41.051Z,19.40
2022-09-07T22:39:17.383Z,16.70
2022-09-07T22:41:47.183Z,18.40
2022-09-07T22:44:18.126Z,18.90
2022-09-07T22:46:47.565Z,18.50
2022-09-07T22:49:16.994Z,18.10
2022-09-07T22:51:45.161Z,18.50
2022-09-07T22:56:40.889Z,18.70
2022-09-07T22:59:10.462Z,19.70
2022-09-07T23:01:38.495Z,19.10
2022-09-07T23:04:06.690Z,18.30
2022-09-07T23:06:43.376Z,17.60
2022-09-07T23:09:20.896Z,18.80
2022-09-07T23:14:22.384Z,16.90
2022-09-07T23:16:50.055Z,18.80
2022-09-07T23:19:19.719Z,18.70
2022-09-07T23:24:18.754Z,18.60
2022-09-07T23:26:47.004Z,19.00
2022-09-07T23:29:15.379Z,18.70
2022-09-07T23:31:45.463Z,18.10
2022-09-07T23:34:12.688Z,19.00
2022-09-07T23:36:39.877Z,18.00
2022-09-07T23:39:07.328Z,19.00
2022-09-07T23:41:34.628Z,18.80
2022-09-07T23:46:29.482Z,18.70
2022-09-07T23:48:56.612Z,18.30
2022-09-07T23:51:24.723Z,18.50
2022-09-07T23:53:53.042Z,18.90
2022-09-07T23:56:21.338Z,18.60
2022-09-07T23:58:48.528Z,19.50
